Share

Abu Dhabi, UAE

Abu Dhabi International (OMAA) Elev 89 ft | 24.43 °N, 54.65 °E | Change Station

Current weather conditions updated 5 minutes ago

Clear
Clear
91 °F
Feels Like 89 °F
N
14
Wind Variable Wind from NW
Sunrise 5:56 AM
Sunset 6:45 PM
Moon Waning Gibbous

Tomorrow is forecast to be Much Cooler than today.

Pressure 29.77 in
Visibility -9999.0 miles
Clouds
Heat Index 89 °F
Dew Point 54 °F
Humidity 28%
Rainfall 0.00 in
Snow Depth Not available.
UV Not available.
Pollen Not available.
Air Quality Not available.
Flu Activity Not available.
METAR OMAA 191300Z 32012KT CAVOK 33/12 Q1008 A2978 NOSIG

More Conditions Fewer Conditions

Pressure 29.77 in
Visibility -9999.0 miles
Clouds
Heat Index 89 °F
Dew Point 54 °F
Humidity 28%
Rainfall 0.00 in
Snow Depth Not available.
UV Not available.
Pollen Not available.
Air Quality Not available.
Flu Activity Not available.
METAR OMAA 191300Z 32012KT CAVOK 33/12 Q1008 A2978 NOSIG

More Conditions Fewer Conditions

10-Day Weather Forecast

Almanac

Astronomy

Apr. 19, 2014 Rise Set
Actual Time 5:56 AM GST 6:45 PM GST
Civil Twilight 5:33 AM GST 7:08 PM GST
Nautical Twilight 5:05 AM GST 7:36 PM GST
Astronomical Twilight 4:37 AM GST 8:04 PM GST
Moon 10:50 PM GST 9:05 AM GST
Length of Visible Light 13h 35m
Length of Day
12h 48m
Tomorrow will be 1m 19s longer.
Waning Gibbous, 80% of the Moon is Illuminated
Today
Waning Gibbous
Apr 22
Last Quarter
Apr 29
New
May 6
First Quarter
May 14
Full

Yesterday's Extremes

Country Highs Country Lows

Community

  • Bleeding Hearts
    Bleeding Hearts
  • Sunset Silhouettes
    Sunset Silhouettes
  • FL sunset Perico Isle
    FL sunset Perico Isle
  • Cloudy spring view
    Cloudy spring view
  • Old barn
    Old barn

WunderPhotos

Upload Photos

1,702,715 photos uploaded!

Nearby

Snow Depth

Not available.

Coastal Water Temperatures

Place Temperature
No Stations Reporting

Earthquake Activity

City Distance Mag. Time & Date
No recent earthquake activity has been reported nearby.
Minimum magnitude displayed is 2.5.

Nearby Weather Stations

Station Location Temp. Heat Index Dew Point Humidity Wind Precip. Elev Updated Type
Khalifa City A, close to Masdar City, Ab, Abu Dhabi 92.1 °F 93 °F 63 °F 38% SSE  at  7.8 mph 0.00 in / hr 0 ft 5:01 PM GST Rapid Fire
Khalifa City A, Abu Dhabi 94.8 °F 96 °F 62 °F 34% NW  at  11.4 mph 0.00 in / hr 0 ft 5:05 PM GST Rapid Fire
Station 1, Abu Dhabi 90.5 °F 91 °F 63 °F 40% NNW  at  2.0 mph 0.00 in / hr 3 ft 5:02 PM GST Normal

Show More Stations Show Fewer Stations

What do you think?

We're not finished. Please let us know what you like, what you don't like, and what you are still missing.